Time;durP1;ratioP1;P1;durP2;ratioP2;P2;SDS_P1;SDS_P2;PMS_P1;PMS_P2;Temp;Humidity;BMP_temperature;BMP_pressure;BME280_temperature;BME280_humidity;BME280_pressure;Samples;Min_cycle;Max_cycle;Signal;HPM_P1;HPM_P2
2021/11/26 00:00:59;;;;;;;6.72;1.17;;;6.80;99.90;;;;;;5097256;28;20049;-77
2021/11/26 00:03:25;;;;;;;5.10;0.82;;;6.80;99.90;;;;;;5082191;28;20031;-73
2021/11/26 00:05:51;;;;;;;5.75;0.80;;;6.80;99.90;;;;;;5101443;28;20088;-70
2021/11/26 00:08:17;;;;;;;3.47;0.77;;;6.90;99.90;;;;;;5097122;28;20059;-75
2021/11/26 00:10:42;;;;;;;3.95;1.23;;;6.90;99.90;;;;;;5092872;27;20430;-73
2021/11/26 00:13:10;;;;;;;1.63;0.47;;;6.90;99.90;;;;;;5123211;27;20042;-77
2021/11/26 00:15:39;;;;;;;5.85;1.10;;;6.90;99.90;;;;;;5129666;27;20046;-73
2021/11/26 00:18:15;;;;;;;5.68;0.77;;;6.90;99.90;;;;;;5100182;27;20031;-73
2021/11/26 00:20:41;;;;;;;5.93;3.33;;;7.00;99.90;;;;;;5088888;27;20049;-72
2021/11/26 00:23:07;;;;;;;7.22;2.95;;;7.00;99.90;;;;;;5134400;27;20031;-71
2021/11/26 00:25:33;;;;;;;15.90;4.60;;;7.00;99.90;;;;;;5100403;27;20027;-71
2021/11/26 00:27:59;;;;;;;1.50;0.80;;;6.90;99.90;;;;;;5116640;27;20019;-75
2021/11/26 00:30:25;;;;;;;9.38;3.15;;;7.00;99.90;;;;;;5109139;27;20485;-73
2021/11/26 00:32:50;;;;;;;6.88;0.85;;;6.90;99.90;;;;;;5089020;28;20075;-77
2021/11/26 00:35:16;;;;;;;8.65;1.30;;;7.00;99.90;;;;;;5089990;28;20495;-73
2021/11/26 00:37:42;;;;;;;4.53;0.98;;;7.00;99.90;;;;;;5098512;28;20565;-70
2021/11/26 00:40:08;;;;;;;6.55;0.88;;;7.00;99.90;;;;;;5109778;27;20359;-73
2021/11/26 00:42:34;;;;;;;3.13;0.80;;;7.00;99.90;;;;;;5089364;27;20810;-71
2021/11/26 00:44:59;;;;;;;1.70;0.50;;;7.00;99.90;;;;;;5102502;28;20347;-73
2021/11/26 00:47:26;;;;;;;3.88;1.25;;;7.10;99.90;;;;;;5112165;27;20114;-67
2021/11/26 00:49:52;;;;;;;6.97;1.20;;;7.00;99.90;;;;;;5115215;27;20026;-67
2021/11/26 00:52:18;;;;;;;7.40;0.90;;;7.00;99.90;;;;;;5122908;27;20035;-74
2021/11/26 00:54:44;;;;;;;6.47;0.98;;;7.00;99.90;;;;;;5122128;27;20062;-72
2021/11/26 00:57:10;;;;;;;6.75;1.92;;;7.10;99.90;;;;;;5131165;27;20003;-71
2021/11/26 00:59:37;;;;;;;9.15;0.88;;;7.10;99.90;;;;;;5102617;27;20435;-67
2021/11/26 01:02:03;;;;;;;7.95;1.30;;;7.10;99.90;;;;;;5126945;27;20006;-73
2021/11/26 01:04:29;;;;;;;4.05;0.82;;;7.10;99.90;;;;;;5133776;27;20035;-68
2021/11/26 01:06:54;;;;;;;4.78;1.10;;;7.10;99.90;;;;;;5108203;27;20048;-72
2021/11/26 01:09:20;;;;;;;4.05;0.90;;;7.10;99.90;;;;;;5131980;27;20019;-70
2021/11/26 01:11:46;;;;;;;7.30;1.20;;;7.10;99.90;;;;;;5136925;28;20019;-67
2021/11/26 01:14:11;;;;;;;3.00;0.75;;;7.10;99.90;;;;;;5129938;27;20034;-72
2021/11/26 01:16:37;;;;;;;5.22;0.80;;;7.00;99.90;;;;;;5119786;28;20050;-77
2021/11/26 01:19:03;;;;;;;4.75;0.98;;;7.00;99.90;;;;;;5103146;28;20024;-65
2021/11/26 01:21:29;;;;;;;11.88;1.02;;;7.00;99.90;;;;;;5086531;27;20043;-67
2021/11/26 01:23:55;;;;;;;5.65;1.70;;;7.00;99.90;;;;;;5116574;27;20035;-64
2021/11/26 01:26:20;;;;;;;3.10;0.40;;;6.90;99.90;;;;;;5107871;27;20031;-63
2021/11/26 01:28:47;;;;;;;3.70;0.50;;;6.80;99.90;;;;;;5100648;28;20036;-64
2021/11/26 01:31:14;;;;;;;4.07;1.42;;;6.70;99.90;;;;;;5080539;28;20106;-68
2021/11/26 01:33:39;;;;;;;0.98;0.32;;;6.60;99.90;;;;;;5112828;27;20050;-62
2021/11/26 01:36:05;;;;;;;1.25;0.40;;;6.70;99.90;;;;;;5101688;28;20019;-64
2021/11/26 01:38:31;;;;;;;2.08;0.43;;;6.60;99.90;;;;;;5091208;27;20057;-64
2021/11/26 01:40:57;;;;;;;3.50;1.30;;;6.70;99.90;;;;;;5072003;28;20036;-68
2021/11/26 01:43:23;;;;;;;3.67;0.85;;;6.70;99.90;;;;;;5125620;27;20058;-70
2021/11/26 01:45:52;;;;;;;9.68;1.23;;;6.70;99.90;;;;;;5083518;27;20473;-66
2021/11/26 01:48:19;;;;;;;5.65;0.88;;;6.70;99.90;;;;;;5098798;27;20023;-66
2021/11/26 01:50:45;;;;;;;7.40;1.40;;;6.60;99.90;;;;;;5093990;28;20019;-70
2021/11/26 01:53:11;;;;;;;3.08;0.60;;;6.70;99.90;;;;;;5095720;28;20080;-65
2021/11/26 01:55:37;;;;;;;3.08;1.17;;;6.60;99.90;;;;;;5093764;28;20031;-67
2021/11/26 01:58:03;;;;;;;5.40;1.77;;;6.60;99.90;;;;;;5108222;27;20119;-64
2021/11/26 02:00:32;;;;;;;5.32;1.42;;;6.60;99.90;;;;;;5098334;28;20073;-83
2021/11/26 02:02:58;;;;;;;3.25;0.88;;;6.60;99.90;;;;;;5117849;27;20027;-69
2021/11/26 02:05:24;;;;;;;3.80;0.85;;;6.60;99.90;;;;;;5100284;28;20035;-76
2021/11/26 02:07:51;;;;;;;3.28;0.90;;;6.60;99.90;;;;;;5115608;28;20030;-86
2021/11/26 02:10:17;;;;;;;3.53;0.95;;;6.60;99.90;;;;;;5113944;28;20039;-81
2021/11/26 02:12:43;;;;;;;4.45;1.10;;;6.50;99.90;;;;;;5099855;28;20091;-68
2021/11/26 02:15:09;;;;;;;3.85;0.60;;;6.50;99.90;;;;;;5120159;27;20019;-69
2021/11/26 02:17:35;;;;;;;3.88;0.77;;;6.40;99.90;;;;;;5124145;27;20035;-71
2021/11/26 02:20:01;;;;;;;4.25;0.75;;;6.30;99.90;;;;;;5114571;28;20036;-69
2021/11/26 02:22:27;;;;;;;2.58;1.00;;;6.30;99.90;;;;;;5112148;27;20020;-65
2021/11/26 02:24:53;;;;;;;4.03;0.88;;;6.20;99.90;;;;;;5121768;27;20031;-66
2021/11/26 02:27:19;;;;;;;8.25;1.25;;;6.20;99.90;;;;;;5109515;27;20010;-78
2021/11/26 02:29:55;;;;;;;5.32;1.23;;;6.10;99.90;;;;;;5116785;27;20035;-64
2021/11/26 02:32:21;;;;;;;8.50;1.75;;;6.20;99.90;;;;;;5103937;28;20055;-66
2021/11/26 02:34:47;;;;;;;4.10;1.35;;;6.10;99.90;;;;;;5126185;27;20086;-65
2021/11/26 02:37:13;;;;;;;8.82;1.15;;;6.00;99.90;;;;;;5123459;28;20028;-66
2021/11/26 02:39:38;;;;;;;10.10;1.23;;;6.10;99.90;;;;;;5124176;27;20118;-67
2021/11/26 02:42:04;;;;;;;8.05;1.20;;;6.10;99.90;;;;;;5097077;28;20042;-68
2021/11/26 02:44:30;;;;;;;4.72;1.52;;;6.20;99.90;;;;;;5109597;28;20460;-71
2021/11/26 02:46:55;;;;;;;4.55;1.20;;;6.10;99.90;;;;;;5147246;28;20030;-73
2021/11/26 02:49:21;;;;;;;6.30;1.33;;;6.10;99.90;;;;;;5138293;28;20019;-71
2021/11/26 02:51:47;;;;;;;4.82;1.90;;;6.00;99.90;;;;;;5124355;28;20088;-66
2021/11/26 02:54:12;;;;;;;8.15;1.58;;;6.10;99.90;;;;;;5095547;28;20034;-74
2021/11/26 02:56:38;;;;;;;9.40;1.17;;;6.20;99.90;;;;;;5138924;28;20035;-77
2021/11/26 02:59:03;;;;;;;16.63;2.03;;;6.20;99.90;;;;;;5132836;28;20043;-67
2021/11/26 03:01:29;;;;;;;10.65;1.20;;;6.30;99.90;;;;;;5154056;28;20071;-82
2021/11/26 03:03:55;;;;;;;6.85;1.60;;;6.30;99.90;;;;;;5124015;28;20088;-68
2021/11/26 03:06:20;;;;;;;6.65;1.58;;;6.30;99.90;;;;;;5117639;28;20041;-73
2021/11/26 03:08:46;;;;;;;14.52;1.95;;;6.30;99.90;;;;;;5143718;28;20020;-81
2021/11/26 03:11:12;;;;;;;9.93;1.35;;;6.30;99.90;;;;;;5118587;28;20126;-80
2021/11/26 03:13:38;;;;;;;12.00;1.77;;;6.40;99.90;;;;;;5107561;28;20405;-66
2021/11/26 03:16:03;;;;;;;7.07;1.65;;;6.40;99.90;;;;;;5115136;28;20040;-71
2021/11/26 03:18:29;;;;;;;13.35;2.90;;;6.30;99.90;;;;;;5098270;28;20074;-77
2021/11/26 03:20:57;;;;;;;10.70;1.45;;;6.40;99.90;;;;;;5119836;28;20769;-70
2021/11/26 03:23:23;;;;;;;7.60;1.63;;;6.40;99.90;;;;;;5103315;28;20555;-72
2021/11/26 03:25:48;;;;;;;8.70;1.70;;;6.40;99.90;;;;;;5109991;28;20023;-73
2021/11/26 03:28:15;;;;;;;9.07;2.15;;;6.40;99.90;;;;;;5098249;28;20019;-78
2021/11/26 03:30:42;;;;;;;6.35;1.92;;;6.40;99.90;;;;;;5122867;28;20030;-70
2021/11/26 03:33:08;;;;;;;8.48;1.60;;;6.30;99.90;;;;;;5133545;28;20484;-78
2021/11/26 03:35:34;;;;;;;6.40;1.63;;;6.40;99.90;;;;;;5102852;28;20023;-75
2021/11/26 03:38:00;;;;;;;5.35;1.38;;;6.40;99.90;;;;;;5071014;28;20034;-77
2021/11/26 03:40:27;;;;;;;4.35;1.42;;;6.40;99.90;;;;;;5099580;28;20039;-69
2021/11/26 03:42:53;;;;;;;5.32;1.85;;;6.40;99.90;;;;;;5095460;28;20102;-69
2021/11/26 03:45:21;;;;;;;9.80;2.80;;;6.50;99.90;;;;;;5076821;28;20038;-66
2021/11/26 03:47:47;;;;;;;7.72;2.10;;;6.50;99.90;;;;;;5099039;28;20015;-66
2021/11/26 03:50:13;;;;;;;9.77;1.58;;;6.50;99.90;;;;;;5128640;27;20068;-68
2021/11/26 03:52:39;;;;;;;5.20;1.33;;;6.60;99.90;;;;;;5099441;27;20066;-66
2021/11/26 03:55:07;;;;;;;6.57;1.40;;;6.60;99.90;;;;;;5093600;28;20405;-65
2021/11/26 03:57:33;;;;;;;3.17;0.98;;;6.50;99.90;;;;;;5090231;27;20418;-74
2021/11/26 03:59:58;;;;;;;9.77;1.58;;;6.50;99.90;;;;;;5101767;27;20112;-65
2021/11/26 04:02:24;;;;;;;5.50;1.15;;;6.50;99.90;;;;;;5110653;28;20043;-72
2021/11/26 04:04:50;;;;;;;7.32;1.85;;;6.40;99.90;;;;;;5088953;27;20039;-74
2021/11/26 04:07:15;;;;;;;6.55;1.95;;;6.50;99.90;;;;;;5070113;27;20050;-77
2021/11/26 04:09:41;;;;;;;4.55;1.63;;;6.50;99.90;;;;;;5141127;27;20019;-72
2021/11/26 04:12:08;;;;;;;8.00;1.25;;;6.40;99.90;;;;;;5139614;27;20041;-80
2021/11/26 04:14:33;;;;;;;6.15;1.35;;;6.40;99.90;;;;;;5139492;27;20042;-69
2021/11/26 04:16:59;;;;;;;16.02;3.58;;;6.50;99.90;;;;;;5121786;27;20020;-67
2021/11/26 04:19:25;;;;;;;6.38;1.50;;;6.50;99.90;;;;;;5122175;27;20183;-73
2021/11/26 04:21:50;;;;;;;7.22;2.10;;;6.50;99.90;;;;;;5125891;28;20007;-74
2021/11/26 04:24:16;;;;;;;7.15;1.58;;;6.60;99.90;;;;;;5140215;28;20046;-71
2021/11/26 04:26:42;;;;;;;3.40;1.25;;;6.50;99.90;;;;;;5112426;28;20016;-65
2021/11/26 04:29:07;;;;;;;6.75;1.40;;;6.60;99.90;;;;;;5127225;27;20024;-76
2021/11/26 04:31:33;;;;;;;6.45;2.13;;;6.60;99.90;;;;;;5122362;27;20045;-67
2021/11/26 04:33:58;;;;;;;4.32;1.50;;;6.60;99.90;;;;;;5123547;28;20044;-77
2021/11/26 04:36:24;;;;;;;5.07;1.55;;;6.50;99.90;;;;;;5122511;28;20033;-77
2021/11/26 04:38:50;;;;;;;7.22;2.13;;;6.50;99.90;;;;;;5118967;28;20038;-68
2021/11/26 04:41:16;;;;;;;4.03;1.50;;;6.50;99.90;;;;;;5096701;28;20039;-76
2021/11/26 04:43:41;;;;;;;6.95;1.20;;;6.40;99.90;;;;;;5078524;28;20056;-76
2021/11/26 04:46:07;;;;;;;4.97;1.27;;;6.50;99.90;;;;;;5070755;28;20031;-74
2021/11/26 04:48:33;;;;;;;5.78;2.17;;;6.50;99.90;;;;;;5109669;28;20057;-78
2021/11/26 04:50:58;;;;;;;6.70;1.33;;;6.50;99.90;;;;;;5099372;28;20028;-77
2021/11/26 04:53:24;;;;;;;6.55;1.30;;;6.40;99.90;;;;;;5085946;28;20104;-64
2021/11/26 04:55:49;;;;;;;8.18;1.42;;;6.40;99.90;;;;;;5100560;28;20032;-67
2021/11/26 04:58:15;;;;;;;12.80;2.67;;;6.40;99.90;;;;;;5095380;28;20036;-75
2021/11/26 05:00:41;;;;;;;7.47;1.17;;;6.50;99.90;;;;;;5091353;28;20043;-72
2021/11/26 05:03:07;;;;;;;11.55;2.30;;;6.50;99.90;;;;;;5092921;28;20016;-75
2021/11/26 05:05:33;;;;;;;4.15;1.20;;;6.50;99.90;;;;;;5083312;28;20508;-68
2021/11/26 05:07:59;;;;;;;9.23;1.40;;;6.50;99.90;;;;;;5093347;28;20027;-81
2021/11/26 05:10:27;;;;;;;8.10;1.23;;;6.60;99.90;;;;;;5093360;28;20034;-79
2021/11/26 05:12:57;;;;;;;3.70;0.88;;;6.40;99.90;;;;;;5083340;28;20040;-79
2021/11/26 05:15:25;;;;;;;5.72;1.52;;;6.40;99.90;;;;;;5118101;28;20059;-76
2021/11/26 05:17:53;;;;;;;7.82;1.17;;;6.40;99.90;;;;;;5117704;28;20021;-67
2021/11/26 05:20:19;;;;;;;4.57;1.52;;;6.50;99.90;;;;;;5118305;28;20020;-73
2021/11/26 05:22:44;;;;;;;3.70;0.80;;;6.40;99.90;;;;;;5123590;28;20039;-66
2021/11/26 05:25:10;;;;;;;4.50;0.98;;;6.40;99.90;;;;;;5126662;28;20009;-68
2021/11/26 05:27:35;;;;;;;8.90;1.38;;;6.30;99.90;;;;;;5121568;28;20031;-70
2021/11/26 05:30:02;;;;;;;2.58;0.80;;;6.30;99.90;;;;;;5094838;28;20032;-83
2021/11/26 05:32:28;;;;;;;5.85;0.93;;;6.30;99.90;;;;;;5095366;28;20021;-70
2021/11/26 05:34:53;;;;;;;6.32;1.38;;;6.20;99.90;;;;;;5130911;27;20069;-68
2021/11/26 05:37:19;;;;;;;5.72;0.75;;;6.20;99.90;;;;;;5117053;28;20099;-79
2021/11/26 05:39:45;;;;;;;6.00;1.10;;;6.20;99.90;;;;;;5123760;28;20040;-71
2021/11/26 05:42:10;;;;;;;4.55;1.25;;;6.20;99.90;;;;;;5101611;28;20016;-72
2021/11/26 05:44:36;;;;;;;4.78;1.38;;;6.20;99.90;;;;;;5117403;28;20039;-66
2021/11/26 05:47:01;;;;;;;1.60;0.75;;;6.20;99.90;;;;;;5115821;28;20032;-66
2021/11/26 05:49:27;;;;;;;4.75;1.33;;;6.30;99.90;;;;;;5109793;28;20043;-68
2021/11/26 05:51:53;;;;;;;3.28;1.45;;;6.20;99.90;;;;;;5123484;28;20008;-69
2021/11/26 05:54:18;;;;;;;2.38;0.93;;;6.20;99.90;;;;;;5104681;28;20035;-64
2021/11/26 05:56:44;;;;;;;3.78;0.80;;;6.20;99.90;;;;;;5094565;28;20703;-68
2021/11/26 05:59:09;;;;;;;2.25;0.90;;;6.20;99.90;;;;;;5101250;28;20090;-69
2021/11/26 06:01:35;;;;;;;4.57;0.73;;;6.20;99.90;;;;;;5111047;28;20031;-81
2021/11/26 06:04:01;;;;;;;2.03;0.60;;;6.20;99.90;;;;;;5087342;28;20099;-84
2021/11/26 06:06:26;;;;;;;4.82;1.00;;;6.10;99.90;;;;;;5092467;28;20020;-82
2021/11/26 06:08:52;;;;;;;4.78;1.17;;;6.10;99.90;;;;;;5100980;28;20023;-80
2021/11/26 06:11:17;;;;;;;6.05;0.98;;;6.10;99.90;;;;;;5087608;28;20097;-80
2021/11/26 06:13:43;;;;;;;3.33;0.85;;;6.20;99.90;;;;;;5098182;28;20473;-76
2021/11/26 06:16:08;;;;;;;5.55;1.23;;;6.20;99.90;;;;;;5095661;28;20063;-75
2021/11/26 06:18:34;;;;;;;6.72;1.15;;;6.20;99.90;;;;;;5091911;28;20134;-85
2021/11/26 06:21:00;;;;;;;6.00;0.80;;;6.20;99.90;;;;;;5082730;28;20031;-81
2021/11/26 06:23:25;;;;;;;3.78;0.82;;;6.30;99.90;;;;;;5109319;28;20055;-77
2021/11/26 06:25:51;;;;;;;1.88;1.58;;;6.30;99.90;;;;;;5102429;28;20092;-65
2021/11/26 06:28:16;;;;;;;10.05;1.25;;;6.40;99.90;;;;;;5114206;28;20016;-65
2021/11/26 06:30:43;;;;;;;4.40;1.13;;;6.30;99.90;;;;;;5093592;28;20382;-65
2021/11/26 06:33:08;;;;;;;3.70;0.93;;;6.30;99.90;;;;;;5107968;28;20020;-68
2021/11/26 06:35:34;;;;;;;4.13;1.15;;;6.40;99.90;;;;;;5117008;27;20092;-66
2021/11/26 06:38:01;;;;;;;6.47;1.35;;;6.40;99.90;;;;;;5108808;28;20020;-69
2021/11/26 06:40:26;;;;;;;10.98;1.20;;;6.40;99.90;;;;;;5133604;27;20138;-67
2021/11/26 06:42:52;;;;;;;8.32;1.30;;;6.50;99.90;;;;;;5110160;28;20409;-66
2021/11/26 06:45:18;;;;;;;10.38;1.10;;;6.50;99.90;;;;;;5115646;28;20045;-66
2021/11/26 06:47:46;;;;;;;6.90;2.08;;;6.50;99.90;;;;;;5107158;28;20028;-70
2021/11/26 06:50:12;;;;;;;4.90;2.13;;;6.60;99.90;;;;;;5106535;28;20030;-65
2021/11/26 06:52:38;;;;;;;5.32;1.30;;;6.60;99.90;;;;;;5112995;28;20027;-65
2021/11/26 06:55:05;;;;;;;5.45;0.93;;;6.60;99.90;;;;;;5127019;28;20047;-67
2021/11/26 06:57:31;;;;;;;3.83;0.73;;;6.70;99.90;;;;;;5096638;28;20031;-69
2021/11/26 06:59:56;;;;;;;5.82;1.20;;;6.70;99.90;;;;;;5085838;28;20039;-74
2021/11/26 07:02:22;;;;;;;3.50;0.98;;;6.80;99.90;;;;;;5083444;28;20031;-64
2021/11/26 07:04:48;;;;;;;2.42;0.90;;;6.90;99.90;;;;;;5099766;28;20164;-67
2021/11/26 07:07:14;;;;;;;4.35;1.00;;;6.90;99.90;;;;;;5079821;28;20488;-75
2021/11/26 07:09:40;;;;;;;10.20;1.33;;;6.90;99.90;;;;;;5074867;28;20125;-72
2021/11/26 07:12:09;;;;;;;3.58;1.13;;;7.00;99.90;;;;;;5120144;28;20149;-76
2021/11/26 07:14:40;;;;;;;6.72;1.50;;;7.00;99.90;;;;;;5093881;28;20102;-74
2021/11/26 07:17:06;;;;;;;3.63;1.00;;;7.00;99.90;;;;;;5116188;28;20485;-75
2021/11/26 07:19:32;;;;;;;6.95;1.48;;;7.00;99.90;;;;;;5112491;28;20023;-71
2021/11/26 07:21:57;;;;;;;5.32;1.33;;;7.00;99.90;;;;;;5088462;28;20034;-77
2021/11/26 07:24:23;;;;;;;7.78;1.25;;;7.00;99.90;;;;;;5097600;27;20039;-72
2021/11/26 07:26:49;;;;;;;7.80;1.55;;;7.00;99.90;;;;;;5084475;28;20117;-73
2021/11/26 07:29:14;;;;;;;3.85;0.95;;;7.00;99.90;;;;;;5097262;27;20027;-76
2021/11/26 07:31:40;;;;;;;5.88;1.10;;;7.00;99.90;;;;;;5100999;28;20031;-73
2021/11/26 07:34:05;;;;;;;7.97;1.50;;;7.00;99.90;;;;;;5120860;27;20073;-72
2021/11/26 07:36:31;;;;;;;7.60;0.95;;;7.10;99.90;;;;;;5110773;27;20027;-69
2021/11/26 07:38:57;;;;;;;6.10;1.13;;;7.10;99.90;;;;;;5123677;27;20031;-70
2021/11/26 07:41:23;;;;;;;3.30;1.00;;;7.10;99.90;;;;;;5100739;28;20028;-65
2021/11/26 07:43:48;;;;;;;6.70;1.92;;;7.10;99.90;;;;;;5111359;28;20029;-80
2021/11/26 07:46:14;;;;;;;6.70;0.93;;;7.20;99.90;;;;;;5133126;27;20031;-70
2021/11/26 07:48:40;;;;;;;4.18;1.15;;;7.20;99.90;;;;;;5131384;27;20051;-77
2021/11/26 07:51:06;;;;;;;2.15;1.02;;;7.20;99.90;;;;;;5082668;27;20428;-76
2021/11/26 07:53:32;;;;;;;6.75;1.10;;;7.30;99.90;;;;;;5100457;27;20077;-74
2021/11/26 07:55:58;;;;;;;4.32;1.10;;;7.30;99.90;;;;;;5102012;27;20019;-77
2021/11/26 07:58:24;;;;;;;2.92;0.90;;;7.30;99.90;;;;;;5107426;27;20028;-70
2021/11/26 08:00:50;;;;;;;3.45;1.25;;;7.40;99.90;;;;;;5098286;27;20032;-70
2021/11/26 08:03:18;;;;;;;2.63;0.90;;;7.50;99.90;;;;;;5090247;27;20047;-69
2021/11/26 08:05:43;;;;;;;4.60;1.45;;;7.50;99.90;;;;;;5111949;27;20114;-72
2021/11/26 08:08:09;;;;;;;6.40;2.00;;;7.60;99.90;;;;;;5119253;27;20107;-74
2021/11/26 08:10:36;;;;;;;9.38;0.98;;;7.50;99.90;;;;;;5107505;28;20023;-67
2021/11/26 08:13:03;;;;;;;4.13;1.20;;;7.60;99.90;;;;;;5128025;28;20018;-71
2021/11/26 08:15:30;;;;;;;7.25;2.10;;;7.80;99.90;;;;;;5117001;27;20024;-74
2021/11/26 08:17:57;;;;;;;6.05;1.40;;;7.70;99.90;;;;;;5100121;28;20019;-78
2021/11/26 08:20:23;;;;;;;5.78;1.33;;;7.60;99.90;;;;;;5102623;27;20134;-67
2021/11/26 08:22:49;;;;;;;7.57;1.45;;;7.50;99.90;;;;;;5110984;27;20075;-72
2021/11/26 08:25:17;;;;;;;5.57;1.20;;;7.40;99.90;;;;;;5082351;27;20110;-70
2021/11/26 08:27:43;;;;;;;2.97;1.10;;;7.20;99.90;;;;;;5106218;28;20568;-71
2021/11/26 08:30:10;;;;;;;3.83;1.60;;;7.10;99.90;;;;;;5115637;27;20037;-63
2021/11/26 08:32:36;;;;;;;4.07;1.25;;;7.00;99.90;;;;;;5115322;28;20055;-65
2021/11/26 08:35:02;;;;;;;3.47;1.25;;;6.90;99.90;;;;;;5122652;27;20055;-67
2021/11/26 08:37:28;;;;;;;4.43;1.33;;;6.80;99.90;;;;;;5122768;27;20035;-71
2021/11/26 08:39:53;;;;;;;5.68;1.10;;;6.70;99.90;;;;;;5083207;27;20420;-64
2021/11/26 08:42:19;;;;;;;5.10;1.20;;;6.60;99.90;;;;;;5084271;27;20027;-70
2021/11/26 08:44:45;;;;;;;6.38;1.48;;;6.70;99.90;;;;;;5109165;28;20513;-73
2021/11/26 08:47:10;;;;;;;8.23;1.73;;;6.50;99.90;;;;;;5100834;28;20473;-70
2021/11/26 08:49:36;;;;;;;4.07;1.25;;;6.50;99.90;;;;;;5123206;27;20031;-71
2021/11/26 08:52:02;;;;;;;5.03;1.50;;;6.40;99.90;;;;;;5105959;27;20107;-72
2021/11/26 08:54:28;;;;;;;3.67;1.10;;;6.40;99.90;;;;;;5093171;27;20035;-69
2021/11/26 08:56:56;;;;;;;3.30;1.35;;;6.40;99.90;;;;;;5093774;27;20024;-78
2021/11/26 08:59:23;;;;;;;4.53;1.08;;;6.40;99.90;;;;;;5105665;27;20074;-75
2021/11/26 09:01:49;;;;;;;4.78;1.40;;;6.50;99.90;;;;;;5095504;27;20165;-71
2021/11/26 09:04:15;;;;;;;5.70;1.40;;;6.50;99.90;;;;;;5095924;27;20110;-63
2021/11/26 09:06:40;;;;;;;6.35;1.27;;;6.40;99.90;;;;;;5122631;27;20486;-68
2021/11/26 09:09:06;;;;;;;6.57;1.42;;;6.40;99.90;;;;;;5130029;27;20598;-63
2021/11/26 09:11:32;;;;;;;7.32;1.77;;;6.40;99.90;;;;;;5117913;27;20040;-74
2021/11/26 09:13:59;;;;;;;3.70;1.08;;;6.40;99.90;;;;;;5099609;27;20028;-65
2021/11/26 09:16:25;;;;;;;6.25;1.30;;;6.30;99.90;;;;;;5084878;27;20160;-73
2021/11/26 09:18:50;;;;;;;7.00;1.40;;;6.30;99.90;;;;;;5093204;27;20500;-71
2021/11/26 09:21:16;;;;;;;5.55;1.00;;;6.30;99.90;;;;;;5111124;28;20539;-78
2021/11/26 09:23:42;;;;;;;3.17;0.90;;;6.30;99.90;;;;;;5120337;27;20153;-79
2021/11/26 09:26:08;;;;;;;3.55;0.95;;;6.30;99.90;;;;;;5102558;27;20046;-68
2021/11/26 09:28:34;;;;;;;7.28;1.23;;;6.40;99.90;;;;;;5088298;28;20035;-65
2021/11/26 09:31:00;;;;;;;6.35;1.35;;;6.30;99.90;;;;;;5092955;28;20024;-68
2021/11/26 09:33:32;;;;;;;5.85;2.25;;;6.40;99.90;;;;;;5094765;27;20831;-75
2021/11/26 09:35:58;;;;;;;4.53;0.95;;;6.40;99.90;;;;;;5096576;27;20108;-75
2021/11/26 09:38:24;;;;;;;7.00;1.48;;;6.40;99.90;;;;;;5096789;27;20027;-73
2021/11/26 09:40:50;;;;;;;3.30;0.75;;;6.50;99.90;;;;;;5103784;27;20023;-78
2021/11/26 09:43:15;;;;;;;5.68;1.40;;;6.50;99.90;;;;;;5100388;28;20422;-76
2021/11/26 09:45:41;;;;;;;4.07;0.90;;;6.50;99.90;;;;;;5104728;27;20481;-81
2021/11/26 09:48:07;;;;;;;7.88;1.60;;;6.60;99.90;;;;;;5117716;27;20039;-76
2021/11/26 09:50:33;;;;;;;5.72;0.93;;;6.70;99.90;;;;;;5112159;27;20015;-74
2021/11/26 09:53:17;;;;;;;5.38;1.60;;;6.70;99.90;;;;;;5116553;28;20062;-71
2021/11/26 09:55:48;;;;;;;5.83;1.13;;;6.60;99.90;;;;;;5123749;27;20018;-68
2021/11/26 09:58:15;;;;;;;5.75;1.58;;;6.60;99.90;;;;;;5115387;27;20027;-66
2021/11/26 10:00:41;;;;;;;9.52;1.50;;;6.60;99.90;;;;;;5115292;28;20031;-64
2021/11/26 10:03:07;;;;;;;7.85;1.23;;;6.60;99.90;;;;;;5112208;28;20054;-69
2021/11/26 10:05:34;;;;;;;15.25;2.08;;;6.50;99.90;;;;;;5117153;28;20042;-70
2021/11/26 10:08:00;;;;;;;6.25;1.52;;;6.60;99.90;;;;;;5115999;27;20008;-66
2021/11/26 10:10:37;;;;;;;7.05;2.08;;;6.50;99.90;;;;;;5139398;27;20019;-69
2021/11/26 10:13:08;;;;;;;10.65;2.00;;;6.50;99.90;;;;;;5119214;27;20157;-64
2021/11/26 10:15:35;;;;;;;8.95;1.50;;;6.50;99.90;;;;;;5136327;27;20488;-64
2021/11/26 10:18:10;;;;;;;6.57;1.55;;;6.50;99.90;;;;;;5138883;27;20023;-70
2021/11/26 10:20:38;;;;;;;5.88;1.52;;;6.60;99.90;;;;;;5156375;27;20035;-75
2021/11/26 10:23:15;;;;;;;8.95;2.05;;;6.70;99.90;;;;;;5137042;27;20397;-73
2021/11/26 10:25:41;;;;;;;4.90;1.48;;;6.70;99.90;;;;;;5146424;27;20043;-68
2021/11/26 10:28:07;;;;;;;7.68;1.77;;;6.90;99.90;;;;;;5135731;28;20020;-76
2021/11/26 10:30:43;;;;;;;9.88;1.98;;;7.00;99.90;;;;;;5117147;28;20047;-67
2021/11/26 10:33:24;;;;;;;9.70;1.88;;;7.10;99.90;;;;;;5118241;28;20079;-67
2021/11/26 10:35:55;;;;;;;6.82;1.27;;;7.10;99.90;;;;;;5116224;28;20035;-64
2021/11/26 10:38:34;;;;;;;2.13;1.33;;;7.10;99.90;;;;;;5100050;28;20003;-73
2021/11/26 10:41:13;;;;;;;6.72;2.00;;;7.10;99.90;;;;;;5117930;28;20030;-69
2021/11/26 10:57:36;;;;;;;8.00;1.60;;;7.10;99.90;;;;;;5136111;28;20126;-72
2021/11/26 11:00:16;;;;;;;4.97;1.50;;;7.20;99.90;;;;;;5109796;27;20078;-66
2021/11/26 11:02:44;;;;;;;3.15;1.80;;;7.10;99.90;;;;;;5097826;28;20019;-69
2021/11/26 11:05:31;;;;;;;6.82;1.35;;;7.00;99.90;;;;;;5081724;28;20020;-69
2021/11/26 11:08:01;;;;;;;4.50;1.15;;;6.90;99.90;;;;;;5098371;28;20027;-75
2021/11/26 11:10:37;;;;;;;6.50;1.70;;;6.80;99.90;;;;;;5130752;27;20029;-62
2021/11/26 11:13:09;;;;;;;3.58;1.52;;;6.80;99.90;;;;;;5120381;27;20028;-67
2021/11/26 11:15:35;;;;;;;5.45;1.23;;;6.80;99.90;;;;;;5099749;27;20546;-69
2021/11/26 11:18:01;;;;;;;3.25;1.35;;;6.80;99.90;;;;;;5101658;27;20027;-64
2021/11/26 11:20:27;;;;;;;2.33;1.33;;;6.90;99.90;;;;;;5137303;27;20370;-73
2021/11/26 11:22:53;;;;;;;4.95;1.55;;;6.80;99.90;;;;;;5098298;28;20016;-72
2021/11/26 11:25:26;;;;;;;6.50;1.98;;;6.80;99.90;;;;;;5100180;27;20022;-69
2021/11/26 11:27:53;;;;;;;6.68;1.85;;;6.80;99.90;;;;;;5084844;28;20023;-68
2021/11/26 11:30:20;;;;;;;3.10;1.38;;;6.90;99.90;;;;;;5098748;28;20105;-67
2021/11/26 11:32:46;;;;;;;6.82;2.40;;;6.90;99.90;;;;;;5080976;27;20027;-69
2021/11/26 11:35:12;;;;;;;4.72;2.13;;;6.90;99.90;;;;;;5081397;28;20116;-71
2021/11/26 11:37:38;;;;;;;6.57;1.55;;;6.90;99.90;;;;;;5111155;27;20029;-70
2021/11/26 11:40:09;;;;;;;4.60;1.83;;;6.90;99.90;;;;;;5117062;27;20028;-70
2021/11/26 11:42:38;;;;;;;7.40;1.70;;;6.90;99.90;;;;;;5136778;27;20031;-68
2021/11/26 11:45:09;;;;;;;7.00;1.55;;;6.90;99.90;;;;;;5118855;27;20028;-70
2021/11/26 11:47:35;;;;;;;6.28;1.80;;;6.90;99.90;;;;;;5101233;28;21131;-71
2021/11/26 11:50:28;;;;;;;4.88;2.00;;;6.80;99.90;;;;;;5102836;27;20031;-69
2021/11/26 11:53:00;;;;;;;6.60;1.90;;;6.80;99.90;;;;;;5094061;27;20064;-69
2021/11/26 11:55:36;;;;;;;9.65;2.25;;;6.80;99.90;;;;;;5118751;27;20500;-72
2021/11/26 11:58:20;;;;;;;16.27;2.42;;;6.70;99.90;;;;;;5131199;27;20019;-72
2021/11/26 12:00:48;;;;;;;8.65;1.85;;;6.70;99.90;;;;;;5116173;28;20081;-70
2021/11/26 12:03:20;;;;;;;8.13;2.20;;;6.60;99.90;;;;;;5102192;28;20039;-82
2021/11/26 12:06:00;;;;;;;14.48;2.25;;;6.70;99.90;;;;;;5121624;28;20035;-69
2021/11/26 12:08:26;;;;;;;8.70;2.33;;;6.40;99.90;;;;;;5120967;27;20031;-81
2021/11/26 12:10:57;;;;;;;5.43;2.08;;;6.30;99.90;;;;;;5111305;27;20019;-75
2021/11/26 12:13:29;;;;;;;10.10;3.05;;;6.20;99.90;;;;;;5112238;27;20023;-75
2021/11/26 12:16:25;;;;;;;6.97;2.20;;;6.10;99.90;;;;;;5123257;28;20492;-68
2021/11/26 12:18:51;;;;;;;;;;;6.10;99.90;;;;;;5087638;28;20477;-77
2021/11/26 12:21:40;;;;;;;7.47;3.42;;;6.00;99.90;;;;;;5108057;28;19922;-81
2021/11/26 12:24:24;;;;;;;8.93;3.40;;;6.00;99.90;;;;;;5123428;28;20032;-78
2021/11/26 12:26:57;;;;;;;8.07;2.85;;;5.90;99.90;;;;;;5107063;27;20057;-75
2021/11/26 12:29:40;;;;;;;6.28;3.30;;;5.80;99.90;;;;;;5084774;28;20027;-79
2021/11/26 12:32:13;;;;;;;10.27;3.28;;;5.80;99.90;;;;;;5089344;28;20024;-74
2021/11/26 12:34:45;;;;;;;10.82;3.72;;;5.80;99.90;;;;;;5084486;28;20177;-80
2021/11/26 12:37:20;;;;;;;12.25;3.58;;;5.80;99.90;;;;;;5079385;28;20489;-70
2021/11/26 12:39:46;;;;;;;7.28;3.17;;;5.70;99.90;;;;;;5114836;28;20042;-69
2021/11/26 12:42:11;;;;;;;10.23;3.75;;;5.70;99.90;;;;;;5108737;27;20381;-68
2021/11/26 12:44:37;;;;;;;6.55;3.95;;;5.70;99.90;;;;;;5116168;27;20031;-66
2021/11/26 12:47:12;;;;;;;7.03;3.05;;;5.70;99.90;;;;;;5094618;28;20377;-66
2021/11/26 12:52:11;;;;;;;8.25;2.70;;;5.60;99.90;;;;;;5096864;28;20114;-69
2021/11/26 12:54:45;;;;;;;9.93;3.97;;;5.60;99.90;;;;;;5114488;28;20031;-67
2021/11/26 12:57:19;;;;;;;;;;;5.60;99.90;;;;;;5093380;28;20028;-68
2021/11/26 12:59:59;;;;;;;13.23;4.00;;;5.60;99.90;;;;;;5096244;28;20354;-71
2021/11/26 13:02:35;;;;;;;5.90;3.08;;;5.60;99.90;;;;;;5096241;28;20049;-72
2021/11/26 13:05:08;;;;;;;7.90;3.50;;;5.60;99.90;;;;;;5096314;28;20020;-71
2021/11/26 13:07:35;;;;;;;13.30;5.53;;;5.60;99.90;;;;;;5133620;27;20023;-74
2021/11/26 13:10:07;;;;;;;10.07;3.42;;;5.70;99.90;;;;;;5096218;28;20027;-67
2021/11/26 13:12:40;;;;;;;9.15;3.90;;;5.70;99.90;;;;;;5114093;28;20371;-66
2021/11/26 13:15:30;;;;;;;10.68;4.05;;;5.70;99.90;;;;;;5101152;27;20035;-67